Flight Track Log - Related Links

Times and Time Zones

All times are in EDT time to prevent confusion due to time zone crossing. See the EGF4247 flight status page for this flight to view local times or setup timezone preferences in your user account.

Time Position Orientation Groundspeed Altitude Reporting Facility
EDT Latitude Longitude Course Direction KTS MPH feet Rate Location/Type
Mon 03:58:17 PM 42.9500 -78.7167 270° West 152 175 1,300  Level Buffalo TRACON
Mon 03:58:59 PM 42.9833 -78.6833 36° Northeast 160 184 2,400 1,647 Climbing Buffalo TRACON
Mon 03:59:59 PM 43.0333 -78.6667 14° North 244 281 4,100 1,684 Climbing Buffalo TRACON
Mon 04:00:00 PM 42.9521 -79.0920 277° West  Level FlightAware Approximate
Mon 04:00:53 PM 43.0500 -78.7500 285° West 262 302 5,600  Level Buffalo TRACON
Mon 04:01:00 PM 42.9626 -79.2173 277° West  Level FlightAware Approximate
Mon 04:01:53 PM 43.0500 -78.8500 270° West 262 302 7,700  Level Buffalo TRACON
Mon 04:02:00 PM 42.9667 -79.3431 270° West  Level FlightAware Approximate
Mon 04:02:45 PM 43.0333 -78.9333 255° West 270 311 9,600  Level Toronto Center
Mon 04:03:00 PM 42.9667 -79.4692 270° West  Level FlightAware Approximate
Mon 04:03:45 PM 43.0333 -79.0167 270° West 280 322 11,000  Level Toronto Center
Mon 04:04:45 PM 43.0333 -79.1500 270° West 310 357 11,900 950 Climbing Toronto Center
Mon 04:05:45 PM 43.0333 -79.2833 270° West 340 391 12,900 1,000 Climbing Toronto Center
Mon 04:06:45 PM 43.0333 -79.4000 270° West 360 414 13,900 1,000 Climbing Toronto Center
Mon 04:07:45 PM 43.0333 -79.5667 270° West 370 426 14,900 950 Climbing Toronto Center
Mon 04:08:45 PM 43.0333 -79.7000 270° West 370 426 15,800 1,050 Climbing Toronto Center
Mon 04:09:45 PM 43.0333 -79.8333 270° West 370 426 17,000 1,667 Climbing Toronto Center
Mon 04:11:45 PM 43.0333 -80.0833 270° West 330 380 20,800 1,600 Climbing Toronto Center
Mon 04:12:45 PM 43.0333 -80.2000 270° West 330 380 21,800 1,000 Climbing Toronto Center
Mon 04:13:45 PM 43.0333 -80.3333 270° West 340 391 22,800 950 Climbing Toronto Center
Mon 04:14:45 PM 43.0333 -80.4833 270° West 350 403 23,700 950 Climbing Toronto Center
Mon 04:15:45 PM 43.0333 -80.6167 270° West 350 403 24,700 950 Climbing Toronto Center
Mon 04:16:45 PM 43.0000 -80.7500 251° West 350 403 25,600 900 Climbing Toronto Center
Mon 04:17:45 PM 42.9667 -80.8667 249° West 350 403 26,500 950 Climbing Toronto Center
Mon 04:18:45 PM 42.9667 -81.0000 270° West 360 414 27,500 950 Climbing Toronto Center
Mon 04:19:45 PM 42.9667 -81.1333 270° West 370 426 28,400 950 Climbing Toronto Center
Mon 04:20:45 PM 42.9667 -81.3000 270° West 370 426 29,400 950 Climbing Toronto Center
Mon 04:21:45 PM 42.9667 -81.4333 270° West 380 437 30,300 1,350 Climbing Toronto Center
Mon 04:22:45 PM 42.9833 -81.6000 278° West 380 437 32,100 1,550 Climbing Toronto Center
Mon 04:23:45 PM 42.9833 -81.7000 270° West 360 414 33,400 1,100 Climbing Toronto Center
Mon 04:24:45 PM 42.9833 -81.8500 270° West 350 403 34,300 850 Climbing Toronto Center
Mon 04:25:45 PM 42.9667 -81.9833 260° West 360 414 35,100 600 Climbing Toronto Center
Mon 04:26:45 PM 42.9667 -82.1167 270° West 370 426 35,500 450 Climbing Toronto Center
Mon 04:27:45 PM 42.9667 -82.2833 270° West 380 437 36,000 250 Climbing Toronto Center
Mon 04:28:45 PM 42.9667 -82.4167 270° West 390 449 36,000  Level Toronto Center
Mon 04:29:45 PM 42.9833 -82.5667 279° West 410 472 36,000  Level Toronto Center
Mon 04:30:07 PM 42.9819 -82.6264 268° West 406 467 36,000  Level Cleveland Center
Mon 04:31:07 PM 42.9789 -82.7881 269° West 421 484 36,000  Level Cleveland Center
Mon 04:32:07 PM 42.9778 -82.9528 270° West 426 490 36,000  Level Cleveland Center
Mon 04:33:07 PM 42.9744 -83.1117 268° West 426 490 36,000  Level Cleveland Center
Mon 04:34:07 PM 42.9744 -83.2931 270° West 432 497 36,000  Level Cleveland Center
Mon 04:35:07 PM 42.9706 -83.4575 268° West 437 503 36,000  Level Cleveland Center
Mon 04:36:45 PM 42.9500 -83.7167 264° West 430 495 36,000  Level Toronto Center
Mon 04:37:06 PM 42.9644 -83.7564 296° West 427 491 36,000  Level Chicago Center
Mon 04:38:08 PM 42.9500 -83.9172 263° West 426 490 36,000  Level Chicago Center
Mon 04:39:11 PM 42.9347 -84.0764 263° West 425 489 36,000  Level Chicago Center
Mon 04:40:07 PM 42.9122 -84.2631 261° West 437 503 36,000 -362 Level Cleveland Center
Mon 04:41:07 PM 42.8992 -84.4069 263° West 437 503 35,300 -950 Descending Cleveland Center
Mon 04:42:07 PM 42.8853 -84.5647 263° West 437 503 34,100 -1,163 Descending Cleveland Center
Mon 04:42:45 PM 42.8667 -84.6833 258° West 430 495 33,400 -1,041 Descending Toronto Center
Mon 04:43:45 PM 42.8500 -84.8333 261° West 440 506 32,400 -875 Descending Toronto Center
Mon 04:44:21 PM 42.8486 -84.9214 269° West 440 506 32,000 -245 Descending Chicago Center
Mon 04:45:23 PM 42.8319 -85.0878 262° West 443 510 32,000  Level Chicago Center
Mon 04:46:25 PM 42.8117 -85.2683 261° West 410 472 32,000  Level Chicago Center
Mon 04:47:27 PM 42.7947 -85.4181 261° West 400 460 32,000 -629 Level Chicago Center
Mon 04:48:29 PM 42.7744 -85.5697 260° West 405 466 30,700 -1,742 Descending Chicago Center
Mon 04:49:31 PM 42.7469 -85.7164 256° West 400 460 28,400 -2,226 Descending Chicago Center
Mon 04:50:33 PM 42.7219 -85.8586 257° West 389 448 26,100 -2,226 Descending Chicago Center
Mon 04:51:35 PM 42.6958 -85.9986 256° West 381 438 23,800 -2,129 Descending Chicago Center
Mon 04:52:37 PM 42.6692 -86.1444 256° West 392 451 21,700 -1,839 Descending Chicago Center
Mon 04:53:39 PM 42.6369 -86.3172 256° West 392 451 20,000 -823 Descending Chicago Center
Mon 04:54:41 PM 42.6081 -86.4661 255° West 405 466 20,000 -194 Level Chicago Center
Mon 04:55:43 PM 42.5797 -86.6147 256° West 407 468 19,600 -1,258 Descending Chicago Center
Mon 04:56:45 PM 42.5492 -86.7714 255° West 397 457 17,400 -1,968 Descending Chicago Center
Mon 04:57:48 PM 42.5144 -86.8969 249° West 393 452 15,500 -1,680 Descending Chicago Center
Mon 04:58:50 PM 42.4778 -87.0272 249° West 374 430 13,900 -1,984 Descending Chicago Center
Mon 04:59:52 PM 42.4417 -87.1558 249° West 310 357 11,400 -2,129 Descending Chicago Center
Mon 05:00:54 PM 42.4136 -87.2603 250° West 292 336 9,500 -1,161 Descending Chicago Center
Mon 05:01:56 PM 42.3867 -87.3597 250° West 288 331 9,000 -242 Descending Chicago Center
Mon 05:02:58 PM 42.3586 -87.4550 248° West 253 291 9,000 -387 Level Chicago Center
Mon 05:04:00 PM 42.3286 -87.5222 239° Southwest 213 245 8,200 -871 Descending Chicago Center
Mon 05:05:02 PM 42.2875 -87.5731 222° Southwest 203 234 7,200 -629 Descending Chicago Center
Mon 05:06:04 PM 42.2456 -87.6225 221° Southwest 203 234 6,900 -774 Descending Chicago Center
Mon 05:07:06 PM 42.1908 -87.6808 218° Southwest 210 242 5,600 -1,258 Descending Chicago Center

Login

Don't have an account? Register now (free) for customized features, flight alerts, and more!